Terminal Aerodrome Forecast
Issued by NWS

Home | Current Version | Previous Version | Graphics & Text | Print | Product List | Glossary On
Versions: 1 2 3 4 5 6 7 8 9 10 11 12 13 14 15 16 17 18 19 20
000
FTUS41 KCLE 090533
TAFFDY
TAF
KFDY 090533Z 0906/1006 20010KT P6SM SCT250
     FM091200 20010KT P6SM OVC070
     FM091700 23010KT 5SM -SHSN BKN015
      TEMPO 0917/0920 2SM -SN
     FM092100 28010KT P6SM OVC015=

USA.gov is the U.S. government's official web portal to all federal, state and local government web resources and services.